Search METAR Data

METAR Data for EICK:

EICK 241130Z 34011KT 300V020 9999 BKN028 11/04 Q1019 NOSIG